Rossmoor, California
Current Conditions -  °F | °C
As of 3:58 AM on Monday 24 Nov 2014 (Local Time) from KSLI Reporting Station
Clear Clear  
Wind Chill: 46°   Ceiling: Unl
Heat Index: 46°   Visibility: 10mi
Dew Point: 32°   Wind: 3mph
Humidity: 58%   Direction: 310°NW
Pressure: 30.13"   Gusts: NA
Location:  33.7944°N, 118.065°W
Report Text: KSLI 241158Z AUTO 31003KT 10SM CLR 08/00 A3013 RMK AO2 SLP206 T00790001 10130 20076 58002
Loading
Personal Weather Stations






























Interactive Weather Map New forecast layout! Learn more

10-Day Weather Forecast

Advertisements
Track Severe Weather on mobile